createdAt,value
2023-04-04T00:00:45.284Z,7.76
2023-04-04T00:03:12.410Z,7.76
2023-04-04T00:05:39.354Z,7.77
2023-04-04T00:08:06.394Z,7.80
2023-04-04T00:10:33.372Z,7.80
2023-04-04T00:13:00.646Z,7.79
2023-04-04T00:15:27.779Z,7.81
2023-04-04T00:17:54.777Z,7.74
2023-04-04T00:20:21.791Z,7.79
2023-04-04T00:22:48.813Z,7.82
2023-04-04T00:25:15.788Z,7.79
2023-04-04T00:27:42.867Z,7.74
2023-04-04T00:30:10.201Z,7.74
2023-04-04T00:32:37.198Z,7.72
2023-04-04T00:35:04.334Z,7.71
2023-04-04T00:37:31.353Z,7.70
2023-04-04T00:39:58.402Z,7.70
2023-04-04T00:42:25.425Z,7.69
2023-04-04T00:44:52.657Z,7.61
2023-04-04T00:47:22.663Z,7.63
2023-04-04T00:49:49.569Z,7.64
2023-04-04T00:52:16.715Z,7.60
2023-04-04T00:54:43.857Z,7.60
2023-04-04T00:57:10.781Z,7.57
2023-04-04T00:59:38.086Z,7.53
2023-04-04T01:02:08.898Z,7.54
2023-04-04T01:04:36.493Z,7.55
2023-04-04T01:07:04.768Z,7.53
2023-04-04T01:09:32.284Z,7.50
2023-04-04T01:11:59.470Z,7.49
2023-04-04T01:14:26.528Z,7.47
2023-04-04T01:16:53.567Z,7.45
2023-04-04T01:19:25.086Z,7.42
2023-04-04T01:21:53.278Z,7.40
2023-04-04T01:24:22.882Z,7.35
2023-04-04T01:26:51.058Z,7.28
2023-04-04T01:29:18.010Z,7.23
2023-04-04T01:31:50.136Z,7.16
2023-04-04T01:34:21.389Z,7.15
2023-04-04T01:36:53.987Z,7.10
2023-04-04T01:39:25.255Z,7.08
2023-04-04T01:41:52.466Z,7.08
2023-04-04T01:44:19.753Z,7.08
2023-04-04T01:46:46.708Z,7.05
2023-04-04T01:49:13.696Z,7.07
2023-04-04T01:51:41.180Z,7.01
2023-04-04T01:54:08.318Z,7.00
2023-04-04T01:56:35.452Z,6.98
2023-04-04T01:59:02.449Z,6.96
2023-04-04T02:01:29.591Z,6.94
2023-04-04T02:03:56.529Z,6.93
2023-04-04T02:06:23.829Z,6.93
2023-04-04T02:08:50.863Z,6.94
2023-04-04T02:11:17.911Z,6.92
2023-04-04T02:13:44.997Z,6.88
2023-04-04T02:16:12.087Z,6.83
2023-04-04T02:18:39.177Z,6.82
2023-04-04T02:21:06.164Z,6.78
2023-04-04T02:23:33.086Z,6.77
2023-04-04T02:26:00.050Z,6.75
2023-04-04T02:28:29.216Z,6.70
2023-04-04T02:30:56.273Z,6.69
2023-04-04T02:33:23.387Z,6.68
2023-04-04T02:35:50.290Z,6.67
2023-04-04T02:38:17.321Z,6.63
2023-04-04T02:40:45.954Z,6.66
2023-04-04T02:43:12.887Z,6.71
2023-04-04T02:45:39.827Z,6.72
2023-04-04T02:48:07.998Z,6.69
2023-04-04T02:50:35.130Z,6.62
2023-04-04T02:53:02.616Z,6.59
2023-04-04T02:55:29.595Z,6.56
2023-04-04T02:57:56.739Z,6.53
2023-04-04T03:00:23.604Z,6.54
2023-04-04T03:02:57.330Z,6.55
2023-04-04T03:05:25.529Z,6.54
2023-04-04T03:07:54.722Z,6.54
2023-04-04T03:10:21.625Z,6.56
2023-04-04T03:12:48.536Z,6.57
2023-04-04T03:15:17.679Z,6.56
2023-04-04T03:17:45.307Z,6.56
2023-04-04T03:20:13.072Z,6.54
2023-04-04T03:22:39.949Z,6.55
2023-04-04T03:25:07.111Z,6.57
2023-04-04T03:27:34.934Z,6.51
2023-04-04T03:30:02.237Z,6.45
2023-04-04T03:32:29.165Z,6.40
2023-04-04T03:34:56.148Z,6.42
2023-04-04T03:37:23.372Z,6.42
2023-04-04T03:39:50.520Z,6.41
2023-04-04T03:42:17.462Z,6.37
2023-04-04T03:44:44.322Z,6.38
2023-04-04T03:47:11.210Z,6.37
2023-04-04T03:49:38.096Z,6.41
2023-04-04T03:52:05.211Z,6.40
2023-04-04T03:54:32.179Z,6.38
2023-04-04T03:56:59.227Z,6.34
2023-04-04T03:59:26.234Z,6.31
2023-04-04T04:01:53.222Z,6.26
2023-04-04T04:04:20.344Z,6.27
2023-04-04T04:06:49.635Z,6.27
2023-04-04T04:09:16.469Z,6.26
2023-04-04T04:11:43.322Z,6.24
2023-04-04T04:14:10.181Z,6.24
2023-04-04T04:16:39.719Z,6.27
2023-04-04T04:19:06.561Z,6.22
2023-04-04T04:21:33.443Z,6.17
2023-04-04T04:24:00.283Z,6.13
2023-04-04T04:26:27.714Z,6.14
2023-04-04T04:28:54.695Z,6.14
2023-04-04T04:31:22.033Z,6.15
2023-04-04T04:33:49.084Z,6.14
2023-04-04T04:36:16.065Z,6.15
2023-04-04T04:38:43.218Z,6.12
2023-04-04T04:41:10.110Z,6.11
2023-04-04T04:43:37.604Z,6.13
2023-04-04T04:46:04.475Z,6.13
2023-04-04T04:48:31.474Z,6.10
2023-04-04T04:50:58.308Z,6.07
2023-04-04T04:53:25.147Z,6.06
2023-04-04T04:55:52.770Z,6.02
2023-04-04T04:58:22.884Z,6.03
2023-04-04T05:00:49.861Z,6.04
2023-04-04T05:03:16.957Z,6.03
2023-04-04T05:05:44.428Z,5.98
2023-04-04T05:08:11.287Z,5.95
2023-04-04T05:10:38.351Z,5.89
2023-04-04T05:13:05.400Z,5.93
2023-04-04T05:15:32.662Z,5.94
2023-04-04T05:17:59.639Z,5.98
2023-04-04T05:20:26.727Z,5.99
2023-04-04T05:22:53.605Z,5.99
2023-04-04T05:25:20.480Z,5.97
2023-04-04T05:27:48.676Z,5.93
2023-04-04T05:30:16.004Z,5.85
2023-04-04T05:32:44.861Z,5.81
2023-04-04T05:35:11.808Z,5.76
2023-04-04T05:37:40.647Z,5.71
2023-04-04T05:40:08.106Z,5.70
2023-04-04T05:42:35.004Z,5.71
2023-04-04T05:45:01.984Z,5.72
2023-04-04T05:47:28.836Z,5.73
2023-04-04T05:49:55.682Z,5.74
2023-04-04T05:52:22.812Z,5.75
2023-04-04T05:54:49.769Z,5.77
2023-04-04T05:57:19.752Z,5.81
2023-04-04T05:59:46.978Z,5.85
2023-04-04T06:02:13.936Z,5.90
2023-04-04T06:04:41.386Z,5.96
2023-04-04T06:07:08.197Z,5.95
2023-04-04T06:09:36.553Z,5.97
2023-04-04T06:12:05.041Z,5.97
2023-04-04T06:14:31.986Z,6.01
2023-04-04T06:16:59.141Z,6.04
2023-04-04T06:19:26.362Z,6.06
2023-04-04T06:21:53.205Z,6.13
2023-04-04T06:24:20.258Z,6.14
2023-04-04T06:26:51.644Z,6.18
2023-04-04T06:29:20.774Z,6.21
2023-04-04T06:31:47.743Z,6.23
2023-04-04T06:34:15.153Z,6.22
2023-04-04T06:36:42.006Z,6.24
2023-04-04T06:39:08.919Z,6.28
2023-04-04T06:41:35.761Z,6.28
2023-04-04T06:44:02.729Z,6.29
2023-04-04T06:46:31.740Z,6.32
2023-04-04T06:48:58.657Z,6.41
2023-04-04T06:51:25.935Z,6.47
2023-04-04T06:53:52.939Z,6.50
2023-04-04T06:56:19.890Z,6.58
2023-04-04T06:58:46.896Z,6.70
2023-04-04T07:01:14.016Z,7.18
2023-04-04T07:03:40.930Z,7.99
2023-04-04T07:06:07.759Z,8.58
2023-04-04T07:08:36.948Z,8.82
2023-04-04T07:11:04.450Z,9.00
2023-04-04T07:13:35.634Z,8.82
2023-04-04T07:16:03.170Z,8.77
2023-04-04T07:18:30.153Z,9.36
2023-04-04T07:20:57.876Z,10.21
2023-04-04T07:23:24.847Z,10.41
2023-04-04T07:25:52.433Z,10.17
2023-04-04T07:28:19.534Z,10.22
2023-04-04T07:30:46.481Z,10.23
2023-04-04T07:33:13.578Z,10.05
2023-04-04T07:35:40.613Z,9.93
2023-04-04T07:38:07.780Z,9.74
2023-04-04T07:40:34.779Z,9.60
2023-04-04T07:43:01.803Z,9.56
2023-04-04T07:45:28.945Z,9.67
2023-04-04T07:47:56.392Z,9.94
2023-04-04T07:50:23.386Z,10.16
2023-04-04T07:52:52.637Z,10.71
2023-04-04T07:55:21.582Z,11.50
2023-04-04T07:57:48.491Z,12.19
2023-04-04T08:00:15.784Z,12.67
2023-04-04T08:02:43.866Z,13.39
2023-04-04T08:05:11.111Z,13.82
2023-04-04T08:07:38.039Z,14.30
2023-04-04T08:10:05.331Z,14.58
2023-04-04T08:12:32.815Z,14.72
2023-04-04T08:14:59.707Z,14.75
2023-04-04T08:17:26.905Z,14.34
2023-04-04T08:19:53.818Z,13.57
2023-04-04T08:22:20.946Z,12.90
2023-04-04T08:24:47.821Z,12.39
2023-04-04T08:27:16.334Z,12.01
2023-04-04T08:29:43.263Z,11.67
2023-04-04T08:32:10.190Z,11.48
2023-04-04T08:34:37.827Z,11.32
2023-04-04T08:37:04.957Z,11.10
2023-04-04T08:39:32.003Z,10.99
2023-04-04T08:42:06.980Z,10.93
2023-04-04T08:44:35.271Z,10.85
2023-04-04T08:47:03.780Z,10.82
2023-04-04T08:49:32.949Z,10.72
2023-04-04T08:52:00.295Z,10.63
2023-04-04T08:54:29.373Z,10.63
2023-04-04T08:56:56.465Z,10.64
2023-04-04T08:59:23.622Z,10.60
2023-04-04T09:01:54.344Z,10.52
2023-04-04T09:04:22.122Z,10.51
2023-04-04T09:06:49.295Z,10.48
2023-04-04T09:09:17.335Z,10.51
2023-04-04T09:11:46.965Z,10.56
2023-04-04T09:14:14.014Z,10.60
2023-04-04T09:16:41.541Z,10.62
2023-04-04T09:19:08.612Z,10.68
2023-04-04T09:21:35.632Z,10.73
2023-04-04T09:24:03.353Z,10.75
2023-04-04T09:26:33.852Z,10.80
2023-04-04T09:29:00.814Z,10.84
2023-04-04T09:31:27.860Z,10.91
2023-04-04T09:33:54.961Z,10.97
2023-04-04T09:36:22.788Z,11.00
2023-04-04T09:38:53.797Z,11.03
2023-04-04T09:41:21.869Z,11.05
2023-04-04T09:43:49.789Z,11.07
2023-04-04T09:46:19.591Z,11.06
2023-04-04T09:48:51.958Z,11.12
2023-04-04T09:51:19.148Z,11.16
2023-04-04T09:53:48.344Z,11.18
2023-04-04T09:56:15.275Z,11.17
2023-04-04T09:58:56.014Z,11.21
2023-04-04T10:01:30.066Z,11.24
2023-04-04T10:03:58.579Z,11.28
2023-04-04T10:06:25.970Z,11.31
2023-04-04T10:08:53.060Z,11.37
2023-04-04T10:11:30.410Z,11.43
2023-04-04T10:13:57.811Z,11.49
2023-04-04T10:16:25.791Z,11.51
2023-04-04T10:18:53.016Z,11.53
2023-04-04T10:21:20.375Z,11.52
2023-04-04T10:23:47.565Z,11.53
2023-04-04T10:26:14.754Z,11.50
2023-04-04T10:28:42.683Z,11.52
2023-04-04T10:31:15.766Z,11.51
2023-04-04T10:33:51.948Z,11.55
2023-04-04T10:36:23.097Z,11.64
2023-04-04T10:38:55.909Z,11.68
2023-04-04T10:41:23.631Z,11.75
2023-04-04T10:43:54.135Z,11.81
2023-04-04T10:46:23.898Z,11.86
2023-04-04T10:48:51.309Z,11.89
2023-04-04T10:51:18.594Z,11.89
2023-04-04T10:53:45.750Z,11.90
2023-04-04T10:56:13.414Z,11.90
2023-04-04T10:58:42.091Z,11.92
2023-04-04T11:01:10.473Z,11.91
2023-04-04T11:03:57.450Z,11.91
2023-04-04T11:06:40.111Z,11.91
2023-04-04T11:09:07.603Z,11.94
2023-04-04T11:11:55.349Z,12.02
2023-04-04T11:14:29.756Z,12.08
2023-04-04T11:16:58.435Z,12.13
2023-04-04T11:19:26.933Z,12.15
2023-04-04T11:21:53.935Z,12.22
2023-04-04T11:24:20.988Z,12.22
2023-04-04T11:26:47.938Z,12.21
2023-04-04T11:29:21.137Z,12.25
2023-04-04T11:31:49.692Z,12.26
2023-04-04T11:34:30.500Z,12.29
2023-04-04T11:36:58.370Z,12.37
2023-04-04T11:39:27.861Z,12.44
2023-04-04T11:41:57.655Z,12.50
2023-04-04T11:44:29.758Z,12.52
2023-04-04T11:46:58.083Z,12.61
2023-04-04T11:49:29.342Z,12.62
2023-04-04T11:51:56.791Z,12.64
2023-04-04T11:54:24.046Z,12.67
2023-04-04T11:56:51.220Z,12.70
2023-04-04T11:59:19.681Z,12.75
2023-04-04T12:01:46.996Z,12.76
2023-04-04T12:04:15.518Z,12.74
2023-04-04T12:06:43.261Z,12.75
2023-04-04T12:09:13.589Z,12.79
2023-04-04T12:11:40.745Z,12.81
2023-04-04T12:14:15.456Z,12.86
2023-04-04T12:16:46.618Z,12.95
2023-04-04T12:19:13.528Z,13.01
2023-04-04T12:21:41.004Z,13.07
2023-04-04T12:24:09.456Z,13.09
2023-04-04T12:26:38.252Z,13.11
2023-04-04T12:29:06.151Z,13.17
2023-04-04T12:31:36.298Z,13.14
2023-04-04T12:34:03.480Z,13.14
2023-04-04T12:36:30.610Z,13.08
2023-04-04T12:39:06.994Z,13.07
2023-04-04T12:41:34.413Z,13.08
2023-04-04T12:44:03.111Z,13.10
2023-04-04T12:46:37.085Z,13.14
2023-04-04T12:49:04.644Z,13.22
2023-04-04T12:51:33.404Z,13.25
2023-04-04T12:54:00.796Z,13.31
2023-04-04T12:56:28.420Z,13.39
2023-04-04T12:59:00.794Z,13.45
2023-04-04T13:01:28.816Z,13.51
2023-04-04T13:03:56.036Z,13.53
2023-04-04T13:06:23.137Z,13.50
2023-04-04T13:08:51.260Z,13.47
2023-04-04T13:11:18.448Z,13.51
2023-04-04T13:16:36.092Z,13.59
2023-04-04T13:19:03.924Z,13.61
2023-04-04T13:21:31.273Z,13.61
2023-04-04T13:23:58.587Z,13.60
2023-04-04T13:26:26.530Z,13.61
2023-04-04T13:28:53.481Z,13.64
2023-04-04T13:31:20.665Z,13.65
2023-04-04T13:33:47.661Z,13.71
2023-04-04T13:36:14.756Z,13.76
2023-04-04T13:38:42.132Z,13.82
2023-04-04T13:41:09.073Z,13.87
2023-04-04T13:43:36.053Z,13.84
2023-04-04T13:46:03.220Z,13.83
2023-04-04T13:48:30.202Z,13.88
2023-04-04T13:50:57.982Z,13.95
2023-04-04T13:53:24.978Z,14.01
2023-04-04T13:56:16.331Z,14.05
2023-04-04T13:58:39.308Z,14.14
2023-04-04T14:01:07.308Z,14.22
2023-04-04T14:03:34.448Z,14.25
2023-04-04T14:06:09.238Z,14.22
2023-04-04T14:08:37.554Z,14.25
2023-04-04T14:11:04.768Z,14.22
2023-04-04T14:13:33.323Z,14.21
2023-04-04T14:16:00.334Z,14.22
2023-04-04T14:18:27.626Z,14.21
2023-04-04T14:20:54.716Z,14.27
2023-04-04T14:23:22.451Z,14.27
2023-04-04T14:25:51.321Z,14.26
2023-04-04T14:28:18.395Z,14.25
2023-04-04T14:30:45.470Z,14.32
2023-04-04T14:33:12.734Z,14.37
2023-04-04T14:35:40.186Z,14.36
2023-04-04T14:38:07.297Z,14.34
2023-04-04T14:40:34.228Z,14.37
2023-04-04T14:43:03.821Z,14.39
2023-04-04T14:45:30.732Z,14.41
2023-04-04T14:47:57.648Z,14.47
2023-04-04T14:50:24.684Z,14.50
2023-04-04T14:52:53.206Z,14.55
2023-04-04T14:55:22.790Z,14.60
2023-04-04T15:00:21.374Z,14.66
2023-04-04T15:02:48.441Z,14.70
2023-04-04T15:05:15.827Z,14.73
2023-04-04T15:07:43.142Z,14.72
2023-04-04T15:10:10.237Z,14.74
2023-04-04T15:12:37.324Z,14.75
2023-04-04T15:15:04.798Z,14.77
2023-04-04T15:17:31.910Z,14.77
2023-04-04T15:20:00.222Z,14.81
2023-04-04T15:22:27.203Z,14.82
2023-04-04T15:24:56.420Z,14.78
2023-04-04T15:27:23.413Z,14.76
2023-04-04T15:29:50.584Z,14.79
2023-04-04T15:32:17.728Z,14.81
2023-04-04T15:34:44.650Z,14.86
2023-04-04T15:37:12.598Z,14.88
2023-04-04T15:39:49.627Z,14.87
2023-04-04T15:42:19.154Z,14.85
2023-04-04T15:44:46.281Z,14.86
2023-04-04T15:47:13.339Z,14.90
2023-04-04T15:49:40.635Z,14.92
2023-04-04T15:52:07.578Z,14.92
2023-04-04T15:54:34.601Z,14.92
2023-04-04T15:57:02.070Z,14.93
2023-04-04T15:59:32.289Z,14.94
2023-04-04T16:01:59.549Z,14.99
2023-04-04T16:04:26.782Z,15.02
2023-04-04T16:06:53.916Z,15.03
2023-04-04T16:09:22.263Z,15.03
2023-04-04T16:11:49.382Z,15.06
2023-04-04T16:14:16.697Z,15.06
2023-04-04T16:16:44.147Z,15.07
2023-04-04T16:19:14.693Z,15.05
2023-04-04T16:21:42.290Z,14.99
2023-04-04T16:24:09.812Z,14.95
2023-04-04T16:26:37.068Z,14.92
2023-04-04T16:29:04.408Z,14.90
2023-04-04T16:31:32.235Z,14.89
2023-04-04T16:34:00.049Z,14.88
2023-04-04T16:36:28.145Z,14.90
2023-04-04T16:38:55.529Z,14.91
2023-04-04T16:41:24.761Z,14.91
2023-04-04T16:43:53.098Z,14.93
2023-04-04T16:46:20.429Z,14.94
2023-04-04T16:48:49.631Z,14.92
2023-04-04T16:51:17.568Z,14.90
2023-04-04T16:53:44.952Z,14.90
2023-04-04T16:56:12.742Z,14.88
2023-04-04T16:58:40.678Z,14.89
2023-04-04T17:01:08.563Z,14.88
2023-04-04T17:03:35.834Z,14.88
2023-04-04T17:06:03.511Z,14.86
2023-04-04T17:08:35.360Z,14.82
2023-04-04T17:11:02.634Z,14.80
2023-04-04T17:13:30.190Z,14.72
2023-04-04T17:15:58.952Z,14.65
2023-04-04T17:18:27.070Z,14.60
2023-04-04T17:20:55.193Z,14.55
2023-04-04T17:23:22.850Z,14.53
2023-04-04T17:25:51.972Z,14.50
2023-04-04T17:28:19.996Z,14.48
2023-04-04T17:30:47.766Z,14.43
2023-04-04T17:33:15.286Z,14.39
2023-04-04T17:35:42.959Z,14.30
2023-04-04T17:38:09.972Z,14.24
2023-04-04T17:40:37.089Z,14.16
2023-04-04T17:43:04.175Z,14.11
2023-04-04T17:45:31.758Z,14.05
2023-04-04T17:47:59.045Z,13.98
2023-04-04T17:50:27.212Z,13.91
2023-04-04T17:52:54.858Z,13.82
2023-04-04T17:55:22.629Z,13.75
2023-04-04T17:57:49.717Z,13.67
2023-04-04T18:00:16.957Z,13.62
2023-04-04T18:02:44.724Z,13.57
2023-04-04T18:05:13.694Z,13.48
2023-04-04T18:07:41.068Z,13.41
2023-04-04T18:10:08.780Z,13.31
2023-04-04T18:12:36.709Z,13.26
2023-04-04T18:15:04.369Z,13.19
2023-04-04T18:17:32.869Z,13.13
2023-04-04T18:20:01.233Z,13.06
2023-04-04T18:22:28.570Z,12.99
2023-04-04T18:24:55.680Z,12.93
2023-04-04T18:27:22.733Z,12.87
2023-04-04T18:29:49.938Z,12.80
2023-04-04T18:32:17.574Z,12.75
2023-04-04T18:34:44.880Z,12.71
2023-04-04T18:37:12.731Z,12.64
2023-04-04T18:39:39.719Z,12.56
2023-04-04T18:42:06.639Z,12.49
2023-04-04T18:44:33.640Z,12.43
2023-04-04T18:47:04.651Z,12.33
2023-04-04T18:49:31.899Z,12.29
2023-04-04T18:51:58.912Z,12.25
2023-04-04T18:54:27.535Z,12.19
2023-04-04T18:56:56.505Z,12.17
2023-04-04T18:59:24.554Z,12.10
2023-04-04T19:01:54.363Z,12.05
2023-04-04T19:04:21.922Z,11.98
2023-04-04T19:06:49.750Z,11.94
2023-04-04T19:09:17.111Z,11.89
2023-04-04T19:11:44.139Z,11.85
2023-04-04T19:14:11.268Z,11.80
2023-04-04T19:16:38.921Z,11.77
2023-04-04T19:19:06.265Z,11.71
2023-04-04T19:21:33.299Z,11.66
2023-04-04T19:24:00.363Z,11.61
2023-04-04T19:26:28.083Z,11.57
2023-04-04T19:28:55.070Z,11.52
2023-04-04T19:31:23.031Z,11.49
2023-04-04T19:33:51.446Z,11.43
2023-04-04T19:36:18.418Z,11.43
2023-04-04T19:38:45.717Z,11.40
2023-04-04T19:41:28.730Z,11.35
2023-04-04T19:43:55.701Z,11.34
2023-04-04T19:46:33.265Z,11.29
2023-04-04T19:49:09.758Z,11.23
2023-04-04T19:51:39.207Z,11.19
2023-04-04T19:54:08.569Z,11.17
2023-04-04T19:56:35.725Z,11.10
2023-04-04T19:59:06.158Z,11.05
2023-04-04T20:01:35.196Z,11.00
2023-04-04T20:04:11.948Z,10.95
2023-04-04T20:06:39.296Z,10.92
2023-04-04T20:09:26.176Z,10.88
2023-04-04T20:11:53.495Z,10.84
2023-04-04T20:14:21.907Z,10.80
2023-04-04T20:16:50.087Z,10.75
2023-04-04T20:19:20.074Z,10.70
2023-04-04T20:21:48.769Z,10.67
2023-04-04T20:24:17.447Z,10.62
2023-04-04T20:26:55.268Z,10.60
2023-04-04T20:29:24.711Z,10.57
2023-04-04T20:31:53.176Z,10.51
2023-04-04T20:34:30.144Z,10.47
2023-04-04T20:36:57.087Z,10.42
2023-04-04T20:39:33.821Z,10.41
2023-04-04T20:42:01.489Z,10.36
2023-04-04T20:44:28.444Z,10.34
2023-04-04T20:46:55.607Z,10.34
2023-04-04T20:49:22.628Z,10.32
2023-04-04T20:51:49.571Z,10.31
2023-04-04T20:54:16.603Z,10.27
2023-04-04T20:56:43.725Z,10.26
2023-04-04T20:59:19.868Z,10.26
2023-04-04T21:01:46.784Z,10.25
2023-04-04T21:04:22.893Z,10.21
2023-04-04T21:06:52.875Z,10.21
2023-04-04T21:09:19.988Z,10.17
2023-04-04T21:11:46.967Z,10.19
2023-04-04T21:14:22.030Z,10.18
2023-04-04T21:16:51.557Z,10.17
2023-04-04T21:19:21.684Z,10.17
2023-04-04T21:21:49.690Z,10.20
2023-04-04T21:24:16.939Z,10.20
2023-04-04T21:26:44.393Z,10.21
2023-04-04T21:29:12.594Z,10.19
2023-04-04T21:31:40.587Z,10.18
2023-04-04T21:34:09.935Z,10.16
2023-04-04T21:36:36.907Z,10.14
2023-04-04T21:39:06.894Z,10.13
2023-04-04T21:41:35.065Z,10.14
2023-04-04T21:44:02.944Z,10.12
2023-04-04T21:46:32.067Z,10.12
2023-04-04T21:48:59.096Z,10.08
2023-04-04T21:51:26.697Z,10.06
2023-04-04T21:53:53.790Z,10.05
2023-04-04T21:56:21.778Z,10.06
2023-04-04T21:58:48.944Z,10.06
2023-04-04T22:01:15.970Z,10.08
2023-04-04T22:03:42.920Z,10.05
2023-04-04T22:06:09.942Z,10.05
2023-04-04T22:08:36.851Z,10.00
2023-04-04T22:11:04.359Z,9.98
2023-04-04T22:13:31.313Z,9.98
2023-04-04T22:15:59.662Z,9.92
2023-04-04T22:18:30.367Z,9.86
2023-04-04T22:21:03.528Z,9.84
2023-04-04T22:23:34.614Z,9.86
2023-04-04T22:26:05.681Z,9.86
2023-04-04T22:28:33.591Z,9.84
2023-04-04T22:31:01.464Z,9.84
2023-04-04T22:33:30.067Z,9.85
2023-04-04T22:35:58.396Z,9.84
2023-04-04T22:38:26.843Z,9.85
2023-04-04T22:40:54.249Z,9.82
2023-04-04T22:43:22.103Z,9.81
2023-04-04T22:45:49.478Z,9.77
2023-04-04T22:48:17.464Z,9.73
2023-04-04T22:50:45.896Z,9.76
2023-04-04T22:53:14.949Z,9.73
2023-04-04T22:55:41.846Z,9.69
2023-04-04T22:58:08.790Z,9.69
2023-04-04T23:00:35.710Z,9.68
2023-04-04T23:03:02.919Z,9.67
2023-04-04T23:05:29.801Z,9.69
2023-04-04T23:08:01.595Z,9.68
2023-04-04T23:10:29.036Z,9.67
2023-04-04T23:12:55.995Z,9.67
2023-04-04T23:15:23.074Z,9.68
2023-04-04T23:17:51.123Z,9.67
2023-04-04T23:20:18.514Z,9.64
2023-04-04T23:22:46.057Z,9.60
2023-04-04T23:25:12.914Z,9.62
2023-04-04T23:27:40.475Z,9.60
2023-04-04T23:30:08.166Z,9.57
2023-04-04T23:32:35.082Z,9.55
2023-04-04T23:35:02.140Z,9.53
2023-04-04T23:37:29.230Z,9.51
2023-04-04T23:39:56.062Z,9.47
2023-04-04T23:42:23.140Z,9.45
2023-04-04T23:44:50.024Z,9.47
2023-04-04T23:47:16.932Z,9.46
2023-04-04T23:49:43.814Z,9.49
2023-04-04T23:52:10.831Z,9.48
2023-04-04T23:54:40.306Z,9.44
2023-04-04T23:57:07.224Z,9.43
2023-04-04T23:59:34.072Z,9.42
